Time;durP1;ratioP1;P1;durP2;ratioP2;P2;SDS_P1;SDS_P2;PMS_P1;PMS_P2;Temp;Humidity;BMP_temperature;BMP_pressure;BME280_temperature;BME280_humidity;BME280_pressure;Samples;Min_cycle;Max_cycle;Signal;HPM_P1;HPM_P2
2024/01/31 00:00:39;;;;;;;0.20;0.20;;;;;;;8.69;70.35;103542.03;5078118;28;20033;-81
2024/01/31 00:03:05;;;;;;;0.20;0.20;;;;;;;8.67;69.97;103541.09;5076759;28;20073;-81
2024/01/31 00:05:32;;;;;;;0.20;0.20;;;;;;;8.65;70.15;103550.69;5077212;28;20017;-81
2024/01/31 00:08:01;;;;;;;0.20;0.20;;;;;;;8.66;70.27;103553.41;5076811;28;20032;-81
2024/01/31 00:10:27;;;;;;;0.20;0.20;;;;;;;8.66;69.90;103558.69;5078768;28;20025;-80
2024/01/31 00:12:53;;;;;;;0.10;0.10;;;;;;;8.64;70.48;103565.66;5078489;28;20056;-81
2024/01/31 00:15:20;;;;;;;0.20;0.20;;;;;;;8.63;70.25;103566.50;5078661;28;20086;-81
2024/01/31 00:17:46;;;;;;;0.20;0.20;;;;;;;8.65;70.55;103570.13;5076472;28;20090;-81
2024/01/31 00:20:12;;;;;;;0.10;0.10;;;;;;;8.65;69.86;103578.03;5075816;28;20127;-80
2024/01/31 00:22:39;;;;;;;0.10;0.10;;;;;;;8.65;69.92;103572.75;5074035;28;20036;-81
2024/01/31 00:25:06;;;;;;;0.10;0.10;;;;;;;8.61;70.52;103573.50;5075565;28;20033;-80
2024/01/31 00:27:32;;;;;;;0.10;0.10;;;;;;;8.64;70.22;103585.94;5074744;28;20058;-80
2024/01/31 00:29:58;;;;;;;0.20;0.20;;;;;;;8.60;70.12;103579.66;5074852;28;20032;-80
2024/01/31 00:32:24;;;;;;;0.20;0.20;;;;;;;8.60;70.29;103584.94;5074723;28;20036;-80
2024/01/31 00:34:50;;;;;;;0.10;0.10;;;;;;;8.57;70.88;103584.81;5075367;28;20070;-80
2024/01/31 00:37:17;;;;;;;0.47;0.47;;;;;;;8.51;71.08;103585.53;5076416;28;20407;-81
2024/01/31 00:39:47;;;;;;;0.10;0.10;;;;;;;8.59;71.09;103583.13;5076119;28;20025;-81
2024/01/31 00:42:13;;;;;;;0.10;0.10;;;;;;;8.59;70.98;103577.84;5076234;28;20033;-81
2024/01/31 00:44:39;;;;;;;0.20;0.20;;;;;;;8.55;71.07;103587.41;5075875;28;20033;-81
2024/01/31 00:47:05;;;;;;;0.10;0.10;;;;;;;8.59;71.18;103593.69;5076304;28;20440;-81
2024/01/31 00:49:31;;;;;;;0.10;0.10;;;;;;;8.66;70.76;103578.94;5076777;28;20032;-81
2024/01/31 00:51:58;;;;;;;0.20;0.20;;;;;;;8.68;70.77;103572.84;5077076;28;20463;-81
2024/01/31 00:54:24;;;;;;;0.10;0.10;;;;;;;8.69;70.50;103569.34;5075595;28;20027;-82
2024/01/31 00:56:50;;;;;;;0.10;0.10;;;;;;;8.73;70.79;103562.41;5075798;28;20059;-81
2024/01/31 00:59:16;;;;;;;0.20;0.20;;;;;;;8.79;70.85;103569.66;5074671;28;20048;-81
2024/01/31 01:01:42;;;;;;;0.20;0.20;;;;;;;8.80;70.63;103563.50;5075654;28;20395;-81
2024/01/31 01:04:09;;;;;;;0.20;0.20;;;;;;;8.79;70.81;103553.81;5076023;28;20043;-81
2024/01/31 01:06:35;;;;;;;0.10;0.10;;;;;;;8.80;70.93;103550.28;5075770;28;20515;-82
2024/01/31 01:09:01;;;;;;;0.10;0.10;;;;;;;8.82;71.01;103549.50;5075516;28;20086;-81
2024/01/31 01:11:29;;;;;;;0.15;0.15;;;;;;;8.83;70.69;103553.91;5074633;28;20025;-81
2024/01/31 01:13:56;;;;;;;0.10;0.10;;;;;;;8.85;70.88;103560.16;5073656;28;20039;-81
2024/01/31 01:16:22;;;;;;;0.10;0.10;;;;;;;8.88;70.67;103556.72;5075944;28;20025;-81
2024/01/31 01:18:48;;;;;;;0.40;0.40;;;;;;;8.89;70.50;103555.88;5075968;28;20115;-81
2024/01/31 01:21:14;;;;;;;0.10;0.10;;;;;;;8.92;70.69;103571.81;5075344;28;20106;-80
2024/01/31 01:23:40;;;;;;;0.10;0.10;;;;;;;8.88;70.26;103575.22;5074618;28;20488;-82
2024/01/31 01:26:07;;;;;;;0.10;0.10;;;;;;;8.85;70.53;103569.84;5076233;28;20029;-81
2024/01/31 01:28:33;;;;;;;0.10;0.10;;;;;;;8.85;70.35;103569.84;5076576;28;20703;-81
2024/01/31 01:30:59;;;;;;;0.10;0.10;;;;;;;8.83;70.19;103577.72;5078105;28;20079;-82
2024/01/31 01:33:26;;;;;;;0.20;0.20;;;;;;;8.74;70.23;103569.50;5076023;28;20442;-81
2024/01/31 01:35:52;;;;;;;0.10;0.10;;;;;;;8.80;70.07;103566.13;5077026;28;20035;-80
2024/01/31 01:38:18;;;;;;;0.10;0.10;;;;;;;8.78;70.49;103570.50;5087034;28;20020;-80
2024/01/31 01:40:45;;;;;;;0.10;0.10;;;;;;;8.78;70.21;103574.03;5084420;28;20107;-80
2024/01/31 01:43:17;;;;;;;0.10;0.10;;;;;;;8.85;70.03;103561.91;5088225;28;20024;-80
2024/01/31 01:45:44;;;;;;;0.20;0.20;;;;;;;8.81;70.22;103547.72;5092235;28;20020;-80
2024/01/31 01:48:14;;;;;;;0.20;0.20;;;;;;;8.81;70.26;103546.78;5089443;28;20024;-80
2024/01/31 01:50:40;;;;;;;0.10;0.10;;;;;;;8.85;70.18;103548.69;5092522;28;20088;-80
2024/01/31 01:53:07;;;;;;;0.15;0.15;;;;;;;8.85;70.35;103560.16;5092104;28;20036;-81
2024/01/31 01:55:34;;;;;;;0.10;0.10;;;;;;;8.82;70.05;103554.78;5087031;28;20051;-82
2024/01/31 01:58:01;;;;;;;0.20;0.20;;;;;;;8.85;70.23;103559.28;5080708;28;20024;-81
2024/01/31 02:00:27;;;;;;;0.10;0.10;;;;;;;8.82;70.00;103559.16;5080119;28;20017;-81
2024/01/31 02:02:54;;;;;;;0.10;0.10;;;;;;;8.81;69.84;103557.38;5078634;28;20072;-81
2024/01/31 02:05:21;;;;;;;0.20;0.20;;;;;;;8.86;69.65;103561.03;5078851;28;20043;-81
2024/01/31 02:07:48;;;;;;;0.17;0.17;;;;;;;8.84;70.04;103555.72;5077631;28;20028;-81
2024/01/31 02:10:14;;;;;;;0.20;0.20;;;;;;;8.87;69.58;103562.84;5078454;28;20052;-81
2024/01/31 02:12:41;;;;;;;0.10;0.10;;;;;;;8.87;69.58;103560.19;5076914;28;20096;-80
2024/01/31 02:15:07;;;;;;;0.10;0.10;;;;;;;8.89;70.04;103555.88;5079554;28;20035;-81
2024/01/31 02:17:34;;;;;;;0.10;0.10;;;;;;;8.87;69.51;103550.53;5079687;28;20087;-81
2024/01/31 02:20:00;;;;;;;0.10;0.10;;;;;;;8.90;69.64;103549.72;5078176;28;20025;-81
2024/01/31 02:22:26;;;;;;;0.13;0.13;;;;;;;8.89;69.56;103545.28;5076677;28;20043;-82
2024/01/31 02:24:52;;;;;;;0.10;0.10;;;;;;;8.88;69.22;103547.06;5078714;28;20093;-81
2024/01/31 02:27:20;;;;;;;0.10;0.10;;;;;;;8.84;69.57;103538.97;5078411;28;20501;-82
2024/01/31 02:29:46;;;;;;;0.10;0.10;;;;;;;8.83;69.55;103535.41;5080122;28;20103;-80
2024/01/31 02:32:12;;;;;;;0.20;0.20;;;;;;;8.83;69.45;103531.88;5077826;28;20113;-80
2024/01/31 02:34:38;;;;;;;0.13;0.13;;;;;;;8.85;69.67;103532.84;5077475;28;20488;-81
2024/01/31 02:37:05;;;;;;;0.10;0.10;;;;;;;8.83;69.22;103526.59;5079085;28;20112;-81
2024/01/31 02:39:31;;;;;;;0.10;0.10;;;;;;;8.85;69.38;103531.06;5078604;28;20111;-81
2024/01/31 02:41:57;;;;;;;0.20;0.20;;;;;;;8.87;69.70;103529.38;5078339;28;20020;-81
2024/01/31 02:44:24;;;;;;;0.20;0.20;;;;;;;8.83;69.45;103532.75;5078259;28;20016;-81
2024/01/31 02:46:52;;;;;;;0.10;0.10;;;;;;;8.85;69.44;103516.97;5079546;28;20028;-81
2024/01/31 02:49:18;;;;;;;0.10;0.10;;;;;;;8.83;69.12;103516.03;5077850;28;20407;-81
2024/01/31 02:51:44;;;;;;;0.10;0.10;;;;;;;8.84;69.31;103512.53;5078212;28;20031;-81
2024/01/31 02:54:11;;;;;;;0.10;0.10;;;;;;;8.86;69.63;103513.44;5076742;28;20028;-80
2024/01/31 02:56:37;;;;;;;0.10;0.10;;;;;;;8.87;69.46;103517.91;5077345;28;20029;-80
2024/01/31 02:59:03;;;;;;;0.10;0.10;;;;;;;8.88;69.39;103511.75;5079767;28;20055;-82
2024/01/31 03:01:29;;;;;;;0.20;0.20;;;;;;;8.89;69.38;103503.00;5079144;28;20044;-82
2024/01/31 03:03:56;;;;;;;0.17;0.17;;;;;;;8.90;69.27;103495.09;5077223;28;20029;-81
2024/01/31 03:06:22;;;;;;;0.10;0.10;;;;;;;8.90;69.22;103488.91;5076357;28;20035;-81
2024/01/31 03:08:48;;;;;;;0.20;0.20;;;;;;;8.87;69.07;103480.88;5077287;28;20399;-82
2024/01/31 03:11:14;;;;;;;0.63;0.63;;;;;;;8.89;69.06;103487.13;5076927;28;20103;-81
2024/01/31 03:13:40;;;;;;;0.20;0.20;;;;;;;8.90;69.25;103483.63;5075502;28;20032;-82
2024/01/31 03:16:06;;;;;;;2.15;1.98;;;;;;;8.94;69.14;103495.19;5077264;28;20108;-82
2024/01/31 03:18:33;;;;;;;0.20;0.20;;;;;;;8.96;69.47;103494.38;5076522;28;20117;-81
2024/01/31 03:21:02;;;;;;;0.20;0.20;;;;;;;8.96;69.04;103493.47;5076942;28;20028;-82
2024/01/31 03:23:28;;;;;;;0.10;0.10;;;;;;;8.95;68.93;103496.97;5077384;28;20040;-82
2024/01/31 03:25:54;;;;;;;0.10;0.10;;;;;;;8.93;69.19;103496.94;5078498;28;20068;-81
2024/01/31 03:28:20;;;;;;;0.10;0.10;;;;;;;8.96;69.21;103499.69;5076181;28;20024;-81
2024/01/31 03:30:46;;;;;;;0.13;0.13;;;;;;;8.96;69.62;103494.38;5077678;28;20036;-82
2024/01/31 03:33:13;;;;;;;0.20;0.20;;;;;;;8.98;69.53;103494.44;5076947;28;20055;-82
2024/01/31 03:35:39;;;;;;;0.20;0.20;;;;;;;9.00;69.07;103485.69;5077233;28;20551;-81
2024/01/31 03:38:05;;;;;;;0.10;0.10;;;;;;;9.00;69.25;103484.81;5076280;28;20373;-82
2024/01/31 03:40:31;;;;;;;0.20;0.20;;;;;;;9.02;69.25;103470.78;5077606;28;20024;-82
2024/01/31 03:42:57;;;;;;;0.10;0.10;;;;;;;9.03;69.02;103480.50;5077756;28;20032;-82
2024/01/31 03:45:24;;;;;;;0.10;0.10;;;;;;;9.04;69.09;103486.66;5078985;28;20033;-81
2024/01/31 03:47:51;;;;;;;0.10;0.10;;;;;;;9.03;68.70;103480.50;5077754;28;20044;-81
2024/01/31 03:50:18;;;;;;;0.10;0.10;;;;;;;9.02;68.62;103475.13;5077748;28;20056;-81
2024/01/31 03:52:44;;;;;;;0.10;0.10;;;;;;;9.01;68.79;103474.25;5077315;28;20032;-80
2024/01/31 03:55:11;;;;;;;0.10;0.10;;;;;;;8.99;68.59;103472.44;5077813;28;20461;-81
2024/01/31 03:57:37;;;;;;;0.20;0.20;;;;;;;8.96;68.33;103473.22;5077980;28;20028;-80
2024/01/31 04:00:08;;;;;;;0.10;0.10;;;;;;;8.96;68.36;103467.94;5077090;28;20412;-81
2024/01/31 04:02:35;;;;;;;0.10;0.10;;;;;;;8.88;67.90;103470.38;5075085;28;20032;-81
2024/01/31 04:05:01;;;;;;;0.10;0.10;;;;;;;8.92;67.86;103471.34;5076165;28;20028;-81
2024/01/31 04:07:31;;;;;;;0.15;0.15;;;;;;;8.92;67.82;103475.75;5077539;28;20548;-80
2024/01/31 04:09:57;;;;;;;0.10;0.10;;;;;;;8.92;67.98;103473.09;5077025;28;20037;-81
2024/01/31 04:12:23;;;;;;;0.10;0.10;;;;;;;8.91;67.95;103472.22;5075005;28;20086;-81
2024/01/31 04:14:49;;;;;;;0.17;0.17;;;;;;;8.91;67.98;103474.84;5075484;28;20407;-81
2024/01/31 04:17:15;;;;;;;0.57;0.57;;;;;;;8.90;67.90;103481.00;5077013;28;20028;-81
2024/01/31 04:19:45;;;;;;;0.20;0.20;;;;;;;8.93;67.92;103481.06;5077124;28;20040;-80
2024/01/31 04:22:12;;;;;;;0.13;0.13;;;;;;;8.92;68.10;103486.31;5075830;28;20031;-81
2024/01/31 04:24:38;;;;;;;0.10;0.10;;;;;;;8.91;68.41;103485.44;5076050;28;20029;-81
2024/01/31 04:27:04;;;;;;;0.10;0.10;;;;;;;8.93;68.36;103488.13;5076395;28;20099;-81
2024/01/31 04:29:30;;;;;;;0.10;0.10;;;;;;;8.94;68.11;103482.84;5077537;28;20037;-81
2024/01/31 04:31:57;;;;;;;0.20;0.20;;;;;;;8.90;68.02;103479.22;5076338;28;20391;-81
2024/01/31 04:34:23;;;;;;;0.17;0.17;;;;;;;8.83;67.95;103474.59;5076622;28;20047;-81
2024/01/31 04:36:49;;;;;;;0.10;0.10;;;;;;;8.87;67.35;103483.53;5076770;28;20035;-81
2024/01/31 04:39:16;;;;;;;0.10;0.10;;;;;;;8.82;66.97;103479.84;5076165;28;20056;-81
2024/01/31 04:41:43;;;;;;;0.10;0.10;;;;;;;8.87;67.49;103483.53;5076128;28;20029;-81
2024/01/31 04:44:09;;;;;;;0.10;0.10;;;;;;;8.83;66.87;103471.97;5075268;28;20063;-81
2024/01/31 04:46:36;;;;;;;0.10;0.10;;;;;;;8.88;68.02;103474.75;5075173;28;20040;-81
2024/01/31 04:49:02;;;;;;;0.10;0.10;;;;;;;8.86;67.47;103471.16;5075952;28;20120;-81
2024/01/31 04:51:28;;;;;;;0.20;0.20;;;;;;;8.85;67.09;103469.38;5075688;28;20220;-81
2024/01/31 04:53:54;;;;;;;0.10;0.10;;;;;;;8.85;67.54;103469.38;5075060;28;20024;-81
2024/01/31 04:56:20;;;;;;;0.10;0.10;;;;;;;8.88;68.11;103466.81;5075929;28;20029;-81
2024/01/31 04:58:47;;;;;;;0.30;0.30;;;;;;;8.80;67.55;103468.31;5075146;28;20032;-80
2024/01/31 05:01:13;;;;;;;0.10;0.10;;;;;;;8.84;67.73;103462.28;5075892;28;20028;-80
2024/01/31 05:03:39;;;;;;;0.13;0.13;;;;;;;8.79;68.01;103469.19;5076718;28;20510;-81
2024/01/31 05:06:05;;;;;;;0.20;0.20;;;;;;;8.82;68.31;103467.56;5079318;28;20052;-81
2024/01/31 05:08:31;;;;;;;0.10;0.10;;;;;;;8.84;68.14;103473.75;5079221;28;20526;-81
2024/01/31 05:11:00;;;;;;;0.17;0.17;;;;;;;8.83;68.25;103469.31;5077040;28;20032;-82
2024/01/31 05:13:26;;;;;;;0.17;0.17;;;;;;;8.83;68.13;103465.78;5076128;28;20632;-82
2024/01/31 05:15:52;;;;;;;0.20;0.20;;;;;;;8.86;68.62;103468.50;5081113;28;20087;-81
2024/01/31 05:18:19;;;;;;;0.20;0.20;;;;;;;8.89;68.40;103471.25;5080804;28;20044;-81
2024/01/31 05:20:45;;;;;;;0.28;0.28;;;;;;;8.84;68.47;103473.75;5074568;28;20129;-82
2024/01/31 05:23:11;;;;;;;0.20;0.20;;;;;;;8.83;68.91;103476.38;5080317;28;20036;-81
2024/01/31 05:25:37;;;;;;;0.10;0.10;;;;;;;8.84;68.83;103473.75;5079220;28;20032;-82
2024/01/31 05:28:04;;;;;;;0.10;0.10;;;;;;;8.85;69.13;103482.59;5076251;28;20032;-81
2024/01/31 05:30:30;;;;;;;0.20;0.20;;;;;;;8.78;68.92;103477.97;5078650;28;20035;-81
2024/01/31 05:32:56;;;;;;;0.45;0.43;;;;;;;8.81;69.21;103472.78;5080890;28;20025;-81
2024/01/31 05:35:25;;;;;;;0.10;0.10;;;;;;;8.79;69.15;103469.19;5079660;28;20134;-81
2024/01/31 05:37:51;;;;;;;0.20;0.20;;;;;;;8.80;69.06;103463.03;5080543;28;20032;-81
2024/01/31 05:40:18;;;;;;;0.82;0.82;;;;;;;8.79;69.34;103458.63;5079121;28;20047;-82
2024/01/31 05:42:44;;;;;;;0.13;0.13;;;;;;;8.79;69.40;103448.94;5075231;28;20488;-82
2024/01/31 05:45:10;;;;;;;0.10;0.10;;;;;;;8.77;69.50;103439.16;5080228;28;20032;-81
2024/01/31 05:47:36;;;;;;;0.20;0.20;;;;;;;8.76;69.64;103421.50;5080492;28;20028;-82
2024/01/31 05:50:03;;;;;;;0.30;0.30;;;;;;;8.77;69.68;103420.66;5080291;28;20495;-81
2024/01/31 05:52:29;;;;;;;0.28;0.28;;;;;;;8.70;69.79;103417.84;5080196;28;20308;-81
2024/01/31 05:54:55;;;;;;;0.20;0.20;;;;;;;8.78;69.46;103414.53;5080447;28;20115;-81
2024/01/31 05:57:23;;;;;;;0.22;0.22;;;;;;;8.77;69.54;103415.38;5079505;28;20032;-80
2024/01/31 05:59:50;;;;;;;0.45;0.45;;;;;;;8.77;69.52;103397.75;5088580;28;20028;-81
2024/01/31 06:02:17;;;;;;;0.65;0.65;;;;;;;8.76;69.47;103397.72;5082679;28;20020;-82
2024/01/31 06:04:43;;;;;;;0.10;0.10;;;;;;;8.68;69.78;103397.50;5080772;28;20029;-81
2024/01/31 06:07:12;;;;;;;0.13;0.13;;;;;;;8.72;69.31;103399.38;5081224;28;20032;-82
2024/01/31 06:09:38;;;;;;;0.10;0.10;;;;;;;8.73;69.61;103394.16;5079050;28;20059;-81
2024/01/31 06:12:06;;;;;;;0.10;0.10;;;;;;;8.71;69.29;103385.28;5080421;28;20025;-81
2024/01/31 06:14:35;;;;;;;0.20;0.20;;;;;;;8.73;69.20;103383.59;5079682;28;20060;-81
2024/01/31 06:17:03;;;;;;;0.20;0.20;;;;;;;8.74;69.09;103395.94;5080338;28;20044;-81
2024/01/31 06:19:30;;;;;;;0.20;0.20;;;;;;;8.80;69.31;103410.16;5079879;28;20043;-82
2024/01/31 06:21:56;;;;;;;0.20;0.20;;;;;;;8.82;69.27;103419.97;5080191;28;20040;-81
2024/01/31 06:24:22;;;;;;;0.20;0.20;;;;;;;8.77;68.59;103434.75;5080068;28;20080;-82
2024/01/31 06:26:48;;;;;;;0.13;0.13;;;;;;;8.78;68.59;103447.13;5082369;28;20029;-81
2024/01/31 06:29:18;;;;;;;0.10;0.10;;;;;;;8.79;68.31;103442.75;5081784;28;20028;-81
2024/01/31 06:31:47;;;;;;;0.20;0.20;;;;;;;8.78;67.94;103452.44;5076050;28;20466;-82
2024/01/31 06:34:15;;;;;;;0.20;0.20;;;;;;;8.74;67.44;103455.84;5076575;28;20029;-82
2024/01/31 06:36:41;;;;;;;0.30;0.30;;;;;;;8.82;67.90;103464.00;5076304;28;20092;-81
2024/01/31 06:39:07;;;;;;;0.55;0.55;;;;;;;8.82;67.11;103466.63;5079713;28;20051;-81
2024/01/31 06:41:36;;;;;;;0.30;0.30;;;;;;;8.83;67.15;103479.00;5082453;28;20025;-80
2024/01/31 06:44:02;;;;;;;0.20;0.20;;;;;;;8.86;68.06;103490.56;5084204;28;20028;-81
2024/01/31 06:46:29;;;;;;;0.10;0.10;;;;;;;8.80;66.82;103502.69;5084010;28;20044;-80
2024/01/31 06:48:56;;;;;;;0.22;0.22;;;;;;;8.85;67.32;103516.97;5081588;28;20036;-79
2024/01/31 06:51:22;;;;;;;0.10;0.10;;;;;;;8.83;67.77;103513.38;5084518;28;20054;-79
2024/01/31 06:53:48;;;;;;;0.10;0.10;;;;;;;8.74;67.10;103516.63;5087552;28;20032;-80
2024/01/31 06:56:19;;;;;;;0.25;0.25;;;;;;;8.82;67.14;103519.50;5084058;28;20043;-80
2024/01/31 06:58:46;;;;;;;0.10;0.10;;;;;;;8.86;67.74;103518.75;5088365;28;20104;-80
2024/01/31 07:01:16;;;;;;;0.10;0.10;;;;;;;8.77;67.21;103519.34;5082186;28;20068;-79
2024/01/31 07:03:43;;;;;;;0.65;0.65;;;;;;;8.80;66.78;103527.41;5083109;28;20394;-80
2024/01/31 07:06:11;;;;;;;0.20;0.20;;;;;;;8.84;66.81;103531.03;5092982;28;20016;-80
2024/01/31 07:08:38;;;;;;;0.20;0.20;;;;;;;8.74;66.27;103527.22;5089987;28;20040;-79
2024/01/31 07:11:08;;;;;;;0.20;0.20;;;;;;;8.87;66.38;103531.13;5084833;28;20028;-79
2024/01/31 07:13:36;;;;;;;0.25;0.25;;;;;;;8.87;66.94;103529.38;5077961;28;20033;-79
2024/01/31 07:16:09;;;;;;;2.65;1.23;;;;;;;8.74;65.98;103529.84;5075832;28;20039;-79
2024/01/31 07:18:36;;;;;;;0.20;0.20;;;;;;;8.82;66.23;103533.66;5078195;28;20331;-80
2024/01/31 07:21:02;;;;;;;0.40;0.40;;;;;;;8.82;65.28;103531.00;5078702;28;20028;-80
2024/01/31 07:23:29;;;;;;;0.10;0.10;;;;;;;8.87;65.45;103523.19;5079291;28;20077;-80
2024/01/31 07:25:55;;;;;;;0.20;0.20;;;;;;;8.90;65.14;103510.06;5079826;28;20024;-80
2024/01/31 07:28:22;;;;;;;0.17;0.17;;;;;;;8.88;65.17;103507.38;5080151;28;20028;-79
2024/01/31 07:30:48;;;;;;;0.10;0.10;;;;;;;8.92;64.84;103503.06;5080650;28;20028;-79
2024/01/31 07:33:14;;;;;;;0.20;0.20;;;;;;;8.97;65.01;103516.44;5078015;28;20036;-79
2024/01/31 07:35:40;;;;;;;0.20;0.20;;;;;;;9.01;65.48;103506.00;5079305;28;20058;-79
2024/01/31 07:38:06;;;;;;;0.20;0.20;;;;;;;8.91;64.85;103511.88;5078996;28;20107;-80
2024/01/31 07:40:32;;;;;;;0.20;0.20;;;;;;;8.95;64.89;103524.31;5078469;28;20059;-79
2024/01/31 07:42:58;;;;;;;0.47;0.47;;;;;;;8.94;65.29;103525.16;5078291;28;20032;-80
2024/01/31 07:45:27;;;;;;;0.20;0.20;;;;;;;8.95;65.17;103526.06;5079152;28;20032;-80
2024/01/31 07:47:53;;;;;;;0.10;0.10;;;;;;;8.93;65.17;103514.56;5076388;28;20032;-81
2024/01/31 07:50:19;;;;;;;0.10;0.10;;;;;;;8.98;65.22;103513.81;5075250;28;20039;-81
2024/01/31 07:52:45;;;;;;;0.20;0.20;;;;;;;8.96;65.25;103504.97;5069465;28;20032;-81
2024/01/31 07:55:11;;;;;;;0.20;0.20;;;;;;;8.96;64.90;103511.97;5077241;28;20031;-81
2024/01/31 07:57:38;;;;;;;0.10;0.10;;;;;;;8.99;64.83;103507.69;5076066;28;20059;-82
2024/01/31 08:00:06;;;;;;;0.30;0.30;;;;;;;9.02;64.66;103505.16;5079188;28;20028;-81
2024/01/31 08:02:33;;;;;;;0.10;0.10;;;;;;;9.05;65.01;103496.41;5078417;28;20801;-80
2024/01/31 08:04:59;;;;;;;0.20;0.20;;;;;;;9.08;65.00;103488.53;5077951;28;20028;-80
2024/01/31 08:07:26;;;;;;;0.73;0.73;;;;;;;9.05;64.46;103488.47;5078879;28;20028;-81
2024/01/31 08:09:52;;;;;;;0.13;0.13;;;;;;;9.07;64.79;103482.38;5074628;28;20025;-81
2024/01/31 08:12:18;;;;;;;0.20;0.20;;;;;;;9.07;64.58;103471.78;5080313;28;20553;-82
2024/01/31 08:14:44;;;;;;;0.15;0.15;;;;;;;9.09;64.56;103478.88;5077707;28;20067;-81
2024/01/31 08:17:11;;;;;;;0.50;0.50;;;;;;;9.10;64.51;103472.72;5079343;28;20490;-81
2024/01/31 08:19:37;;;;;;;0.15;0.15;;;;;;;9.12;65.32;103464.00;5080499;28;20143;-81
2024/01/31 08:22:04;;;;;;;0.20;0.20;;;;;;;9.12;64.82;103471.03;5082193;28;20037;-81
2024/01/31 08:24:30;;;;;;;0.10;0.10;;;;;;;9.14;64.90;103456.09;5080889;28;20036;-80
2024/01/31 08:26:56;;;;;;;0.15;0.15;;;;;;;9.13;64.49;103456.94;5081076;28;20056;-80
2024/01/31 08:29:22;;;;;;;0.10;0.10;;;;;;;9.15;64.45;103442.03;5079801;28;20025;-83
2024/01/31 08:31:48;;;;;;;0.20;0.20;;;;;;;9.16;64.10;103442.06;5077820;28;20036;-82
2024/01/31 08:34:14;;;;;;;0.20;0.20;;;;;;;9.19;64.03;103433.31;5078807;28;20036;-83
2024/01/31 08:36:43;;;;;;;0.20;0.20;;;;;;;9.24;64.36;103431.69;5078078;28;20036;-82
2024/01/31 08:39:09;;;;;;;0.20;0.20;;;;;;;9.27;64.60;103421.19;5076800;28;20044;-82
2024/01/31 08:41:36;;;;;;;0.30;0.30;;;;;;;9.30;64.63;103415.09;5077295;28;20025;-83
2024/01/31 08:44:05;;;;;;;0.20;0.20;;;;;;;9.31;64.52;103411.56;5078033;28;20028;-82
2024/01/31 08:46:37;;;;;;;0.10;0.10;;;;;;;9.33;64.05;103402.84;5082275;28;20029;-83
2024/01/31 08:49:06;;;;;;;0.10;0.10;;;;;;;9.32;64.05;103410.72;5084896;28;20057;-82
2024/01/31 08:51:38;;;;;;;0.25;0.25;;;;;;;9.36;64.02;103407.31;5081139;28;20430;-82
2024/01/31 08:54:06;;;;;;;0.25;0.25;;;;;;;9.34;64.59;103403.72;5083548;28;20107;-82
2024/01/31 08:56:34;;;;;;;1.52;1.42;;;;;;;9.35;64.21;103410.81;5086035;28;20034;-82
2024/01/31 08:59:00;;;;;;;0.10;0.10;;;;;;;9.39;64.19;103410.94;5081877;28;20025;-82
2024/01/31 09:01:26;;;;;;;0.20;0.20;;;;;;;9.31;64.25;103399.25;5082185;28;20107;-82
2024/01/31 09:03:54;;;;;;;0.13;0.13;;;;;;;9.29;64.28;103398.31;5080105;28;20024;-83
2024/01/31 09:06:22;;;;;;;0.20;0.20;;;;;;;9.28;64.06;103396.50;5082154;28;20109;-82
2024/01/31 09:08:49;;;;;;;0.13;0.13;;;;;;;9.31;64.30;103393.03;5083420;28;20118;-82
2024/01/31 09:11:16;;;;;;;0.20;0.20;;;;;;;9.32;64.83;103393.09;5082653;28;20099;-82
2024/01/31 09:13:43;;;;;;;0.30;0.30;;;;;;;9.37;65.05;103411.72;5084095;28;20055;-82
2024/01/31 09:16:09;;;;;;;0.10;0.10;;;;;;;9.44;65.48;103402.22;5081365;28;20056;-82
2024/01/31 09:18:35;;;;;;;0.20;0.20;;;;;;;9.39;65.36;103405.66;5081313;28;20055;-81
2024/01/31 09:21:02;;;;;;;0.13;0.13;;;;;;;9.46;65.26;103408.44;5077687;28;20024;-82
2024/01/31 09:23:28;;;;;;;0.10;0.10;;;;;;;9.51;65.18;103393.59;5079797;28;20388;-83
2024/01/31 09:25:55;;;;;;;0.47;0.47;;;;;;;9.52;65.49;103395.34;5080117;28;20021;-82
2024/01/31 09:28:22;;;;;;;0.20;0.20;;;;;;;9.56;65.39;103391.94;5078139;28;20106;-82
2024/01/31 09:30:48;;;;;;;2.28;1.02;;;;;;;9.59;65.41;103392.00;5079118;28;20059;-83
2024/01/31 09:33:17;;;;;;;0.47;0.47;;;;;;;9.68;65.37;103394.00;5078460;28;20020;-82
2024/01/31 09:35:45;;;;;;;0.10;0.10;;;;;;;9.74;65.45;103396.78;5078478;28;20517;-83
2024/01/31 09:38:12;;;;;;;0.10;0.10;;;;;;;9.75;65.50;103395.06;5079904;28;20028;-82
2024/01/31 09:40:41;;;;;;;0.10;0.10;;;;;;;9.71;65.33;103392.31;5080300;28;20056;-81
2024/01/31 09:43:07;;;;;;;0.43;0.43;;;;;;;9.75;65.39;103398.59;5080132;28;20510;-82
2024/01/31 09:45:39;;;;;;;0.20;0.20;;;;;;;9.75;65.51;103395.06;5081709;28;20035;-82
2024/01/31 09:48:06;;;;;;;0.20;0.20;;;;;;;9.75;65.83;103408.28;5081612;28;20051;-82
2024/01/31 09:50:32;;;;;;;2.60;1.48;;;;;;;9.69;65.87;103409.03;5079979;28;20031;-82
2024/01/31 09:53:03;;;;;;;0.20;0.20;;;;;;;9.78;65.81;103413.66;5080582;28;20028;-82
2024/01/31 09:55:32;;;;;;;0.10;0.10;;;;;;;9.77;66.29;103410.13;5081413;28;20081;-82
2024/01/31 09:57:58;;;;;;;0.10;0.10;;;;;;;9.75;66.47;103413.59;5081889;28;20029;-83
2024/01/31 10:00:26;;;;;;;0.35;0.35;;;;;;;9.85;66.37;103412.94;5082170;28;20016;-83
2024/01/31 10:02:52;;;;;;;0.25;0.25;;;;;;;9.90;66.16;103416.59;5080175;28;20028;-81
2024/01/31 10:05:19;;;;;;;0.20;0.20;;;;;;;9.88;66.59;103415.66;5079988;28;20060;-81
2024/01/31 10:07:45;;;;;;;0.20;0.20;;;;;;;9.86;66.66;103418.28;5079193;28;20131;-82
2024/01/31 10:10:11;;;;;;;0.30;0.30;;;;;;;9.96;66.73;103427.34;5078521;28;20084;-82
2024/01/31 10:12:38;;;;;;;0.32;0.32;;;;;;;9.99;66.59;103418.56;5079990;28;20107;-80
2024/01/31 10:15:07;;;;;;;0.20;0.20;;;;;;;9.98;66.73;103425.63;5082572;28;20404;-80
2024/01/31 10:17:34;;;;;;;1.05;1.05;;;;;;;9.90;67.16;103419.25;5083164;28;20107;-81
2024/01/31 10:20:06;;;;;;;0.40;0.40;;;;;;;9.98;66.87;103423.00;5090416;28;20024;-82
2024/01/31 10:22:34;;;;;;;0.20;0.20;;;;;;;9.91;67.01;103431.63;5078315;28;20124;-82
2024/01/31 10:25:01;;;;;;;0.20;0.20;;;;;;;9.97;66.94;103426.50;5074840;28;20036;-82
2024/01/31 10:27:27;;;;;;;0.28;0.28;;;;;;;9.95;67.02;103422.91;5079102;28;20020;-82
2024/01/31 10:29:53;;;;;;;0.20;0.20;;;;;;;9.95;67.21;103420.25;5081529;28;20065;-82
2024/01/31 10:32:21;;;;;;;0.30;0.30;;;;;;;10.01;67.13;103412.44;5079827;28;20527;-82
2024/01/31 10:34:51;;;;;;;4.45;1.58;;;;;;;9.98;67.14;103411.47;5080273;28;20033;-82
2024/01/31 10:37:21;;;;;;;1.85;1.75;;;;;;;10.04;67.52;103401.03;5081015;28;20024;-82
2024/01/31 10:39:48;;;;;;;0.30;0.30;;;;;;;10.02;67.00;103398.34;5081961;28;20028;-82
2024/01/31 10:42:16;;;;;;;0.82;0.82;;;;;;;9.98;67.33;103396.50;5082383;28;20069;-81
2024/01/31 10:44:43;;;;;;;0.20;0.20;;;;;;;10.04;66.79;103387.78;5074426;28;20071;-80
2024/01/31 10:47:10;;;;;;;0.20;0.20;;;;;;;10.14;66.93;103387.16;5075811;28;20024;-82
2024/01/31 10:49:36;;;;;;;0.63;0.63;;;;;;;10.16;66.93;103384.53;5076406;28;20032;-81
2024/01/31 10:52:05;;;;;;;1.17;1.17;;;;;;;10.11;66.70;103370.28;5081586;28;20032;-80
2024/01/31 10:54:36;;;;;;;1.15;1.15;;;;;;;10.14;66.89;103365.06;5079968;28;20024;-81
2024/01/31 10:57:04;;;;;;;0.20;0.20;;;;;;;10.02;66.85;103366.56;5079665;28;20031;-81
2024/01/31 10:59:38;;;;;;;0.38;0.38;;;;;;;10.17;66.77;103355.41;5078146;28;20055;-80
2024/01/31 11:02:12;;;;;;;0.20;0.20;;;;;;;10.11;66.46;103338.50;5079028;28;20024;-81
2024/01/31 11:04:39;;;;;;;1.75;1.65;;;;;;;10.05;65.37;103333.97;5079251;28;20029;-81
2024/01/31 11:07:05;;;;;;;0.80;0.80;;;;;;;9.99;64.72;103325.88;5079129;28;20024;-81
2024/01/31 11:09:32;;;;;;;0.10;0.10;;;;;;;10.03;64.43;103325.06;5078352;28;20028;-81
2024/01/31 11:14:41;;;;;;;0.10;0.10;;;;;;;9.97;64.04;103299.34;5092957;27;20415;-80
2024/01/31 11:17:11;;;;;;;0.95;0.95;;;;;;;10.06;63.74;103293.38;5086134;28;20510;-80
2024/01/31 11:19:43;;;;;;;1.45;0.85;;;;;;;10.11;63.75;103288.19;5086538;28;20575;-80
2024/01/31 11:22:10;;;;;;;;;;;;;;;10.27;63.43;103284.97;5075426;28;20060;-81
2024/01/31 11:24:44;;;;;;;0.90;0.90;;;;;;;10.20;64.02;103280.41;5082551;28;19962;-81
2024/01/31 11:27:12;;;;;;;0.95;0.95;;;;;;;10.12;62.85;103279.34;5087270;28;20224;-81
2024/01/31 11:29:38;;;;;;;0.82;0.82;;;;;;;10.22;63.70;103270.75;5094325;28;20052;-81
2024/01/31 11:32:06;;;;;;;0.32;0.32;;;;;;;10.24;63.96;103269.00;5094962;28;20044;-81
2024/01/31 11:34:32;;;;;;;0.20;0.20;;;;;;;10.29;63.30;103251.47;5094422;28;20029;-81